Time;durP1;ratioP1;P1;durP2;ratioP2;P2;SDS_P1;SDS_P2;PMS_P1;PMS_P2;Temp;Humidity;BMP_temperature;BMP_pressure;BME280_temperature;BME280_humidity;BME280_pressure;Samples;Min_cycle;Max_cycle;Signal;HPM_P1;HPM_P2
2021/01/20 00:02:25;;;;;;;2.87;2.50;;;2.70;30.50;;;;;;5093554;28;20204;-70
2021/01/20 00:04:50;;;;;;;2.70;2.50;;;2.70;31.10;;;;;;5111910;28;20653;-70
2021/01/20 00:07:16;;;;;;;5.73;3.37;;;2.70;30.70;;;;;;5093352;28;20175;-71
2021/01/20 00:09:42;;;;;;;3.43;2.40;;;2.70;30.80;;;;;;5111172;28;20255;-72
2021/01/20 00:12:08;;;;;;;4.20;2.70;;;2.80;30.70;;;;;;5111393;28;20671;-70
2021/01/20 00:14:33;;;;;;;4.33;2.93;;;2.70;31.10;;;;;;5093279;28;20175;-71
2021/01/20 00:16:59;;;;;;;4.50;2.90;;;2.70;31.10;;;;;;5111153;28;20241;-71
2021/01/20 00:19:24;;;;;;;4.57;3.20;;;2.70;31.10;;;;;;5110998;28;20248;-71
2021/01/20 00:21:50;;;;;;;4.97;2.57;;;2.70;31.10;;;;;;5111300;28;20188;-71
2021/01/20 00:24:15;;;;;;;2.67;2.47;;;2.70;31.10;;;;;;5111188;28;20477;-71
2021/01/20 00:26:41;;;;;;;8.57;3.17;;;2.70;31.10;;;;;;5111251;28;20251;-70
2021/01/20 00:29:06;;;;;;;2.87;1.93;;;2.70;31.10;;;;;;5092846;28;20555;-71
2021/01/20 00:31:32;;;;;;;3.13;2.10;;;2.70;31.10;;;;;;5111064;28;20600;-71
2021/01/20 00:33:58;;;;;;;3.53;2.47;;;2.80;31.10;;;;;;5092813;28;20798;-71
2021/01/20 00:36:23;;;;;;;2.30;2.10;;;2.80;31.10;;;;;;5111059;28;20201;-71
2021/01/20 00:38:49;;;;;;;2.77;2.27;;;2.70;31.10;;;;;;5110694;28;20179;-70
2021/01/20 00:41:14;;;;;;;3.50;2.37;;;2.70;31.10;;;;;;5110953;28;20668;-72
2021/01/20 00:43:40;;;;;;;5.20;2.23;;;2.80;31.20;;;;;;5111103;28;20216;-71
2021/01/20 00:46:05;;;;;;;3.80;2.50;;;2.70;31.10;;;;;;5111059;28;20183;-70
2021/01/20 00:48:31;;;;;;;3.73;2.80;;;2.70;31.10;;;;;;5111077;28;20261;-71
2021/01/20 00:50:59;;;;;;;2.97;2.20;;;2.60;31.30;;;;;;5092464;28;20184;-70
2021/01/20 00:53:25;;;;;;;2.58;1.90;;;2.70;31.20;;;;;;5110967;28;20660;-72
2021/01/20 00:55:51;;;;;;;3.40;1.90;;;2.70;31.60;;;;;;5096385;28;20205;-72
2021/01/20 00:58:17;;;;;;;2.37;1.90;;;2.70;31.20;;;;;;5115222;28;20226;-73
2021/01/20 01:00:43;;;;;;;2.80;1.90;;;2.70;31.10;;;;;;5114724;28;20451;-71
2021/01/20 01:03:09;;;;;;;3.60;2.70;;;2.70;31.10;;;;;;5114920;28;20197;-71
2021/01/20 01:05:36;;;;;;;3.08;2.00;;;2.70;31.10;;;;;;5114887;28;20459;-72
2021/01/20 01:08:02;;;;;;;3.10;2.70;;;2.80;31.10;;;;;;5114786;28;20517;-72
2021/01/20 01:10:27;;;;;;;2.65;2.30;;;2.70;31.10;;;;;;5114866;28;20169;-72
2021/01/20 01:12:53;;;;;;;2.73;2.47;;;2.70;31.10;;;;;;5115079;28;20204;-70
2021/01/20 01:15:19;;;;;;;4.47;2.20;;;2.70;31.10;;;;;;5114678;28;20203;-71
2021/01/20 01:17:44;;;;;;;2.93;2.07;;;2.80;30.50;;;;;;5114710;28;20249;-70
2021/01/20 01:20:11;;;;;;;2.17;1.97;;;2.80;30.30;;;;;;5114518;28;20403;-71
2021/01/20 01:22:36;;;;;;;5.82;2.92;;;2.80;30.30;;;;;;5114919;28;20303;-71
2021/01/20 01:25:03;;;;;;;2.93;2.40;;;2.80;30.00;;;;;;5114792;28;20264;-72
2021/01/20 01:27:28;;;;;;;4.03;2.95;;;2.80;30.00;;;;;;5114426;28;20185;-71
2021/01/20 01:29:54;;;;;;;3.20;2.57;;;2.80;29.90;;;;;;5095981;28;20177;-72
2021/01/20 01:32:19;;;;;;;3.60;2.90;;;2.70;29.90;;;;;;5095952;28;20265;-70
2021/01/20 01:34:45;;;;;;;3.37;3.07;;;2.70;29.90;;;;;;5114479;28;20176;-71
2021/01/20 01:37:10;;;;;;;2.60;2.17;;;2.80;29.70;;;;;;5096020;28;20613;-73
2021/01/20 01:39:36;;;;;;;3.10;2.80;;;2.70;29.70;;;;;;5114212;28;20665;-72
2021/01/20 01:42:04;;;;;;;2.50;2.30;;;2.70;29.70;;;;;;5114072;28;20196;-72
2021/01/20 01:44:30;;;;;;;2.50;2.30;;;2.70;29.70;;;;;;5114159;28;20230;-71
2021/01/20 01:46:55;;;;;;;2.70;2.50;;;2.70;29.70;;;;;;5096001;28;20180;-71
2021/01/20 01:49:21;;;;;;;5.93;3.10;;;2.70;29.70;;;;;;5095707;28;20418;-71
2021/01/20 01:51:47;;;;;;;2.83;2.60;;;2.70;29.90;;;;;;5113954;28;20211;-72
2021/01/20 01:54:15;;;;;;;2.70;2.10;;;2.60;30.00;;;;;;5113988;28;20426;-72
2021/01/20 01:56:40;;;;;;;2.40;1.80;;;2.60;30.30;;;;;;5095631;28;20215;-71
2021/01/20 01:59:06;;;;;;;3.07;2.63;;;2.60;30.50;;;;;;5113626;28;20646;-72
2021/01/20 02:01:32;;;;;;;2.40;2.20;;;2.60;30.20;;;;;;5113911;28;20866;-72
2021/01/20 02:03:57;;;;;;;8.27;2.30;;;2.60;30.40;;;;;;5095516;28;20259;-71
2021/01/20 02:06:23;;;;;;;3.20;2.73;;;2.60;30.70;;;;;;5095503;28;20541;-71
2021/01/20 02:08:49;;;;;;;3.20;2.57;;;2.60;30.50;;;;;;5113476;28;20185;-71
2021/01/20 02:11:21;;;;;;;5.18;3.03;;;2.60;31.00;;;;;;5095627;28;20606;-72
2021/01/20 02:14:11;;;;;;;2.30;2.10;;;2.60;30.70;;;;;;5113587;28;20168;-72
2021/01/20 02:16:43;;;;;;;2.75;2.05;;;2.60;31.00;;;;;;5113537;28;20242;-72
2021/01/20 02:19:16;;;;;;;3.50;2.15;;;2.60;30.60;;;;;;5113307;28;20640;-72
2021/01/20 02:22:06;;;;;;;3.55;2.40;;;2.70;30.10;;;;;;5113747;28;20324;-72
2021/01/20 02:24:46;;;;;;;2.90;2.40;;;2.90;29.70;;;;;;5113359;28;20169;-72
2021/01/20 02:27:24;;;;;;;4.30;2.63;;;2.90;29.40;;;;;;5094980;28;20180;-74
2021/01/20 02:30:01;;;;;;;3.67;3.22;;;2.80;29.60;;;;;;5112978;28;20195;-74
2021/01/20 02:32:28;;;;;;;5.95;2.55;;;2.80;29.60;;;;;;5094734;28;20357;-73
2021/01/20 02:34:57;;;;;;;4.07;2.20;;;2.80;29.70;;;;;;5094709;28;20199;-72
2021/01/20 02:37:23;;;;;;;2.28;1.80;;;2.80;29.70;;;;;;5094859;28;20173;-72
2021/01/20 02:39:48;;;;;;;3.15;2.85;;;2.80;29.70;;;;;;5112863;28;20256;-72
2021/01/20 02:42:14;;;;;;;4.93;1.90;;;2.70;29.90;;;;;;5113733;28;20248;-72
2021/01/20 02:44:40;;;;;;;5.60;2.87;;;2.80;30.00;;;;;;5113363;28;20161;-73
2021/01/20 02:47:08;;;;;;;3.13;2.83;;;2.80;29.90;;;;;;5113059;28;20645;-71
2021/01/20 02:49:34;;;;;;;3.08;2.00;;;2.70;29.90;;;;;;5112773;28;20241;-73
2021/01/20 02:52:18;;;;;;;2.58;2.38;;;2.70;29.70;;;;;;5112958;28;20197;-72
2021/01/20 02:54:45;;;;;;;2.95;2.47;;;2.70;29.80;;;;;;5113282;28;20165;-73
2021/01/20 02:57:13;;;;;;;3.38;2.42;;;2.70;30.00;;;;;;5113085;28;20173;-72
2021/01/20 02:59:40;;;;;;;2.80;2.50;;;2.70;30.10;;;;;;5112855;28;20169;-72
2021/01/20 03:02:12;;;;;;;3.42;2.45;;;2.70;30.00;;;;;;5094823;28;20853;-73
2021/01/20 03:04:41;;;;;;;2.75;2.55;;;2.70;30.20;;;;;;5113308;28;20169;-72
2021/01/20 03:07:07;;;;;;;3.15;2.63;;;2.70;30.30;;;;;;5112925;28;20180;-72
2021/01/20 03:09:33;;;;;;;8.83;2.70;;;2.70;30.00;;;;;;5113103;28;20538;-72
2021/01/20 03:12:03;;;;;;;3.38;2.58;;;2.60;30.00;;;;;;5112923;28;20224;-72
2021/01/20 03:14:31;;;;;;;2.88;2.42;;;2.60;30.40;;;;;;5112703;28;20172;-72
2021/01/20 03:16:57;;;;;;;2.83;2.13;;;2.50;30.60;;;;;;5093602;28;20583;-71
2021/01/20 03:19:22;;;;;;;2.93;2.63;;;2.40;30.80;;;;;;5112393;28;20217;-72
2021/01/20 03:21:48;;;;;;;3.93;2.20;;;2.50;30.90;;;;;;5112298;28;20584;-73
2021/01/20 03:24:13;;;;;;;2.97;2.70;;;2.50;30.90;;;;;;5112307;28;20176;-72
2021/01/20 03:26:39;;;;;;;3.53;2.83;;;2.50;30.90;;;;;;5112215;28;20188;-72
2021/01/20 03:29:05;;;;;;;6.33;3.00;;;2.50;30.60;;;;;;5112197;28;20179;-71
2021/01/20 03:31:30;;;;;;;6.73;2.77;;;2.60;30.20;;;;;;5112419;28;20211;-72
2021/01/20 03:33:56;;;;;;;3.10;2.40;;;2.60;30.00;;;;;;5112074;28;20261;-72
2021/01/20 03:36:21;;;;;;;2.90;2.27;;;2.60;29.90;;;;;;5093588;28;20204;-71
2021/01/20 03:38:47;;;;;;;2.37;2.17;;;2.60;29.90;;;;;;5111813;28;20170;-74
2021/01/20 03:41:12;;;;;;;3.63;2.23;;;2.50;29.70;;;;;;5111753;28;20749;-72
2021/01/20 03:43:38;;;;;;;4.13;2.83;;;2.50;29.70;;;;;;5093586;28;20173;-74
2021/01/20 03:46:04;;;;;;;3.43;2.63;;;2.50;29.70;;;;;;5093800;28;20169;-73
2021/01/20 03:48:29;;;;;;;3.30;3.00;;;2.50;29.90;;;;;;5111917;28;20176;-71
2021/01/20 03:50:55;;;;;;;5.27;2.90;;;2.40;29.80;;;;;;5093167;28;20181;-71
2021/01/20 03:53:20;;;;;;;3.77;2.63;;;2.40;29.60;;;;;;5111538;28;20184;-72
2021/01/20 03:55:46;;;;;;;2.83;2.50;;;2.40;29.70;;;;;;5093297;28;20484;-72
2021/01/20 03:58:13;;;;;;;2.77;2.27;;;2.40;29.80;;;;;;5111604;28;20168;-71
2021/01/20 04:00:39;;;;;;;3.45;3.15;;;2.40;29.70;;;;;;5111363;28;20164;-74
2021/01/20 04:03:04;;;;;;;3.00;2.40;;;2.30;29.50;;;;;;5111412;28;20212;-72
2021/01/20 04:05:30;;;;;;;3.50;2.70;;;2.30;29.50;;;;;;5111606;28;20589;-71
2021/01/20 04:07:55;;;;;;;4.13;3.20;;;2.40;29.10;;;;;;5111672;28;20177;-72
2021/01/20 04:10:21;;;;;;;5.50;2.93;;;2.40;29.20;;;;;;5111363;28;20184;-72
2021/01/20 04:12:47;;;;;;;3.63;3.10;;;2.40;29.10;;;;;;5111224;28;20204;-71
2021/01/20 04:15:12;;;;;;;4.93;3.67;;;2.30;29.40;;;;;;5111456;28;20279;-72
2021/01/20 04:17:38;;;;;;;5.20;3.20;;;2.20;29.30;;;;;;5111302;28;20167;-73
2021/01/20 04:20:05;;;;;;;3.13;2.83;;;2.20;29.30;;;;;;5111155;28;20218;-71
2021/01/20 04:22:31;;;;;;;4.20;3.25;;;2.20;29.10;;;;;;5093043;28;20265;-71
2021/01/20 04:24:56;;;;;;;4.33;2.80;;;2.20;29.00;;;;;;5111115;28;20185;-70
2021/01/20 04:27:22;;;;;;;3.13;2.83;;;2.30;28.90;;;;;;5111286;28;20772;-72
2021/01/20 04:29:47;;;;;;;3.50;2.90;;;2.30;28.80;;;;;;5114993;28;20527;-72
2021/01/20 04:32:13;;;;;;;6.43;2.93;;;2.30;28.70;;;;;;5115230;28;20565;-71
2021/01/20 04:34:38;;;;;;;4.43;3.63;;;2.40;28.40;;;;;;5097672;28;20176;-71
2021/01/20 04:37:05;;;;;;;3.60;2.80;;;2.50;28.20;;;;;;5097000;28;20229;-71
2021/01/20 04:39:30;;;;;;;3.55;3.25;;;2.50;28.20;;;;;;5115190;28;20301;-71
2021/01/20 04:41:57;;;;;;;4.20;2.70;;;2.50;28.10;;;;;;5115299;28;20270;-71
2021/01/20 04:44:22;;;;;;;4.35;3.92;;;2.50;28.10;;;;;;5115589;28;20172;-71
2021/01/20 04:46:50;;;;;;;6.60;2.77;;;2.50;28.30;;;;;;5115257;28;20176;-71
2021/01/20 04:49:16;;;;;;;2.67;2.47;;;2.60;28.10;;;;;;5115163;28;20169;-71
2021/01/20 04:51:43;;;;;;;3.33;3.03;;;2.60;28.00;;;;;;5115257;28;20257;-73
2021/01/20 04:54:11;;;;;;;2.85;2.45;;;2.60;28.20;;;;;;5115323;28;20594;-71
2021/01/20 04:56:38;;;;;;;3.67;2.50;;;2.60;28.00;;;;;;5115154;28;20279;-71
2021/01/20 04:59:04;;;;;;;3.83;2.97;;;2.50;27.80;;;;;;5114924;28;20179;-71
2021/01/20 05:01:30;;;;;;;3.65;2.75;;;2.60;27.50;;;;;;5096980;28;20196;-73
2021/01/20 05:03:56;;;;;;;3.00;2.80;;;2.60;27.60;;;;;;5114964;28;20254;-73
2021/01/20 05:06:22;;;;;;;4.55;3.45;;;2.60;27.60;;;;;;5115025;28;20445;-73
2021/01/20 05:08:47;;;;;;;4.30;3.13;;;2.60;27.60;;;;;;5114614;28;20207;-71
2021/01/20 05:11:14;;;;;;;3.30;3.00;;;2.60;27.70;;;;;;5114761;28;20233;-71
2021/01/20 05:13:40;;;;;;;3.78;3.38;;;2.60;27.70;;;;;;5114945;28;20633;-71
2021/01/20 05:16:05;;;;;;;4.10;3.70;;;2.60;27.50;;;;;;5114495;28;20200;-71
2021/01/20 05:18:47;;;;;;;4.17;3.47;;;2.60;27.40;;;;;;5114568;28;20410;-70
2021/01/20 05:21:19;;;;;;;4.65;3.47;;;2.60;27.30;;;;;;5114457;28;20740;-72
2021/01/20 05:23:45;;;;;;;3.58;3.28;;;2.60;27.20;;;;;;5114597;28;20485;-70
2021/01/20 05:26:10;;;;;;;3.50;3.20;;;2.70;27.30;;;;;;5114476;28;20233;-72
2021/01/20 05:28:36;;;;;;;4.60;4.13;;;2.70;27.40;;;;;;5114519;28;20234;-72
2021/01/20 05:31:04;;;;;;;5.13;4.07;;;2.70;27.20;;;;;;5114089;28;20260;-70
2021/01/20 05:33:38;;;;;;;3.80;3.38;;;2.80;27.00;;;;;;5114455;28;20172;-73
2021/01/20 05:36:13;;;;;;;4.68;4.18;;;2.90;27.00;;;;;;5114302;28;20196;-74
2021/01/20 05:38:43;;;;;;;4.70;4.20;;;2.90;27.00;;;;;;5114199;28;20171;-72
2021/01/20 05:41:19;;;;;;;5.20;4.57;;;2.90;27.00;;;;;;5095164;28;20193;-71
2021/01/20 05:43:45;;;;;;;7.38;4.60;;;2.90;27.00;;;;;;5114464;28;20182;-72
2021/01/20 05:46:11;;;;;;;7.43;4.17;;;3.00;27.10;;;;;;5114327;28;20169;-73
2021/01/20 05:48:47;;;;;;;4.32;3.92;;;3.00;26.90;;;;;;5114153;28;20198;-72
2021/01/20 05:51:13;;;;;;;6.15;4.20;;;3.10;26.60;;;;;;5095776;28;20336;-72
2021/01/20 05:53:49;;;;;;;6.10;4.13;;;3.20;26.50;;;;;;5114849;28;20196;-71
2021/01/20 05:56:15;;;;;;;3.97;3.60;;;3.10;26.40;;;;;;5114809;28;20458;-71
2021/01/20 05:58:41;;;;;;;4.55;4.15;;;3.20;27.10;;;;;;5114820;28;20218;-71
2021/01/20 06:01:11;;;;;;;3.92;3.35;;;3.20;26.60;;;;;;5114728;28;21841;-71
2021/01/20 06:03:37;;;;;;;3.80;3.35;;;3.20;26.70;;;;;;5114864;28;20572;-72
2021/01/20 06:06:05;;;;;;;4.68;3.58;;;3.20;26.70;;;;;;5114635;28;20173;-72
2021/01/20 06:08:35;;;;;;;5.85;4.47;;;3.20;26.60;;;;;;5114752;28;20177;-72
2021/01/20 06:11:05;;;;;;;4.30;3.90;;;3.20;26.30;;;;;;5114374;28;20206;-72
2021/01/20 06:13:31;;;;;;;6.10;4.85;;;3.20;26.50;;;;;;5096781;28;20176;-72
2021/01/20 06:16:05;;;;;;;6.33;5.07;;;3.30;26.50;;;;;;5114624;28;20200;-72
2021/01/20 06:18:36;;;;;;;5.07;3.55;;;3.20;26.50;;;;;;5114481;28;20809;-72
2021/01/20 06:21:02;;;;;;;3.80;3.50;;;3.20;26.50;;;;;;5114103;28;20176;-71
2021/01/20 06:23:30;;;;;;;4.20;3.80;;;3.30;26.40;;;;;;5114281;28;20259;-71
2021/01/20 06:26:03;;;;;;;4.72;4.10;;;3.30;26.20;;;;;;5114740;28;20187;-71
2021/01/20 06:28:30;;;;;;;4.97;4.45;;;3.30;26.10;;;;;;5114364;28;20188;-71
2021/01/20 06:30:57;;;;;;;12.85;4.32;;;3.30;26.10;;;;;;5113916;28;20170;-73
2021/01/20 06:33:28;;;;;;;3.90;3.60;;;3.40;25.90;;;;;;5096830;28;20176;-73
2021/01/20 06:35:54;;;;;;;3.90;3.60;;;3.40;26.10;;;;;;5114620;28;20713;-73
2021/01/20 06:38:28;;;;;;;4.78;3.45;;;3.40;25.90;;;;;;5114539;28;20185;-72
2021/01/20 06:41:30;;;;;;;4.43;3.70;;;3.40;25.90;;;;;;5113095;28;20680;-74
2021/01/20 06:44:14;;;;;;;7.05;4.45;;;3.50;25.80;;;;;;5113079;28;20228;-73
2021/01/20 06:46:57;;;;;;;3.80;3.50;;;3.40;25.90;;;;;;5095026;28;20551;-72
2021/01/20 06:49:24;;;;;;;4.10;3.72;;;3.40;26.40;;;;;;5112953;28;20172;-72
2021/01/20 06:52:25;;;;;;;4.30;3.90;;;3.50;25.80;;;;;;5093676;28;20350;-72
2021/01/20 06:54:50;;;;;;;4.45;3.40;;;3.60;25.70;;;;;;5049914;28;20253;-72
2021/01/20 06:57:30;;;;;;;4.93;3.20;;;3.60;25.50;;;;;;5082423;28;20275;-71
2021/01/20 07:00:08;;;;;;;4.53;4.13;;;3.70;25.30;;;;;;5112949;28;20168;-72
2021/01/20 07:02:56;;;;;;;5.63;3.50;;;3.70;25.20;;;;;;5114174;28;20184;-72
2021/01/20 07:05:32;;;;;;;7.28;3.63;;;3.80;25.20;;;;;;5095802;28;20180;-71
2021/01/20 07:07:57;;;;;;;3.42;3.15;;;3.80;24.90;;;;;;5113703;28;20256;-72
2021/01/20 07:10:50;;;;;;;3.80;3.40;;;3.90;25.10;;;;;;5113564;28;20575;-72
2021/01/20 07:13:18;;;;;;;6.28;4.43;;;3.90;25.00;;;;;;5113272;28;20210;-73
2021/01/20 07:15:45;;;;;;;7.35;4.80;;;3.90;25.10;;;;;;5113510;28;20198;-72
2021/01/20 07:18:13;;;;;;;5.75;5.00;;;3.80;25.10;;;;;;5095630;28;20172;-73
2021/01/20 07:20:40;;;;;;;4.13;3.78;;;3.80;25.20;;;;;;5113395;28;20248;-72
2021/01/20 07:23:06;;;;;;;6.82;4.57;;;3.70;25.30;;;;;;5094909;28;20280;-72
2021/01/20 07:25:32;;;;;;;8.03;4.67;;;3.70;25.30;;;;;;5113581;28;20217;-72
2021/01/20 07:27:58;;;;;;;5.20;4.57;;;3.70;25.30;;;;;;5113424;28;20833;-73
2021/01/20 07:30:24;;;;;;;7.13;5.07;;;3.70;25.50;;;;;;5124870;28;20173;-74
2021/01/20 07:32:49;;;;;;;6.50;4.32;;;3.70;25.40;;;;;;5126341;28;20217;-73
2021/01/20 07:35:25;;;;;;;4.53;4.20;;;3.70;25.40;;;;;;5108108;28;20211;-72
2021/01/20 07:38:05;;;;;;;5.90;4.32;;;3.70;25.70;;;;;;5109070;28;20160;-74
2021/01/20 07:40:33;;;;;;;4.82;4.07;;;3.70;25.70;;;;;;5126771;28;20168;-72
2021/01/20 07:42:59;;;;;;;7.13;4.28;;;3.70;25.60;;;;;;5126160;28;20218;-73
2021/01/20 07:45:37;;;;;;;6.50;4.00;;;3.70;25.50;;;;;;5124717;28;20173;-74
2021/01/20 07:48:04;;;;;;;4.85;4.35;;;3.70;25.60;;;;;;5124854;28;20191;-71
2021/01/20 07:50:41;;;;;;;4.82;4.43;;;3.80;25.50;;;;;;5124349;28;20187;-71
2021/01/20 07:53:10;;;;;;;5.75;4.10;;;3.80;25.50;;;;;;5125668;28;20199;-72
2021/01/20 07:55:36;;;;;;;6.30;5.80;;;3.90;25.40;;;;;;5108236;28;20207;-73
2021/01/20 07:58:02;;;;;;;7.40;4.40;;;4.00;25.00;;;;;;5125176;28;20170;-75
2021/01/20 08:00:27;;;;;;;4.60;4.20;;;4.00;24.80;;;;;;5125542;28;20546;-71
2021/01/20 08:02:53;;;;;;;3.93;3.60;;;4.20;24.60;;;;;;5124919;28;20543;-73
2021/01/20 08:05:19;;;;;;;6.07;4.97;;;4.20;24.70;;;;;;5108415;28;20188;-73
2021/01/20 08:07:45;;;;;;;4.60;4.30;;;4.20;24.40;;;;;;5124960;28;20433;-74
2021/01/20 08:10:21;;;;;;;4.00;3.70;;;4.30;24.20;;;;;;5106268;28;20185;-74
2021/01/20 08:12:49;;;;;;;4.93;4.43;;;4.30;24.10;;;;;;5106748;28;20443;-72
2021/01/20 08:15:15;;;;;;;5.45;4.95;;;4.40;23.90;;;;;;5124214;28;20206;-74
2021/01/20 08:17:43;;;;;;;5.07;4.67;;;4.40;24.20;;;;;;5106891;28;20181;-72
2021/01/20 08:20:11;;;;;;;5.20;4.80;;;4.40;24.20;;;;;;5106907;28;20507;-74
2021/01/20 08:22:45;;;;;;;6.80;4.85;;;4.40;23.90;;;;;;5125559;28;20193;-74
2021/01/20 08:25:10;;;;;;;4.80;4.32;;;4.50;24.00;;;;;;5124020;28;20172;-72
2021/01/20 08:27:37;;;;;;;4.40;4.00;;;4.50;23.90;;;;;;5124251;28;20208;-70
2021/01/20 08:30:05;;;;;;;4.55;4.20;;;4.50;24.00;;;;;;5122434;28;20229;-72
2021/01/20 08:32:31;;;;;;;5.95;5.20;;;4.60;24.00;;;;;;5121069;28;20213;-74
2021/01/20 08:34:59;;;;;;;5.45;4.95;;;4.60;24.00;;;;;;5124049;28;20162;-74
2021/01/20 08:37:34;;;;;;;5.45;5.03;;;4.70;24.20;;;;;;5123138;28;20687;-72
2021/01/20 08:40:03;;;;;;;6.82;6.28;;;4.70;23.80;;;;;;5106508;28;20174;-72
2021/01/20 08:42:39;;;;;;;5.30;4.80;;;4.80;23.20;;;;;;5124223;28;20229;-72
2021/01/20 08:45:16;;;;;;;6.40;5.20;;;4.80;23.40;;;;;;5124198;28;20201;-73
2021/01/20 08:47:46;;;;;;;6.05;5.55;;;4.90;22.90;;;;;;5123511;28;20173;-73
2021/01/20 08:50:18;;;;;;;6.32;5.13;;;4.90;23.10;;;;;;5124257;28;20226;-73
2021/01/20 08:52:49;;;;;;;5.68;5.15;;;5.00;23.10;;;;;;5124611;28;20222;-74
2021/01/20 08:55:30;;;;;;;5.07;4.67;;;5.10;22.80;;;;;;5129902;28;20191;-74
2021/01/20 08:58:32;;;;;;;5.65;5.15;;;5.10;22.70;;;;;;5134447;28;20682;-72
2021/01/20 09:01:09;;;;;;;7.05;5.15;;;5.10;22.60;;;;;;5117925;28;20170;-73
2021/01/20 09:03:36;;;;;;;7.20;5.20;;;5.20;22.50;;;;;;5115642;28;20639;-73
2021/01/20 09:06:22;;;;;;;5.15;4.43;;;5.20;22.50;;;;;;5115186;28;20551;-72
2021/01/20 09:08:47;;;;;;;5.22;4.70;;;5.20;22.40;;;;;;5116232;28;20182;-73
2021/01/20 09:11:13;;;;;;;5.10;4.70;;;5.20;22.40;;;;;;5118546;28;20195;-73
2021/01/20 09:13:39;;;;;;;6.07;5.47;;;5.20;22.60;;;;;;5115873;28;20190;-73
2021/01/20 09:16:07;;;;;;;5.70;4.67;;;5.20;22.60;;;;;;5118430;28;20510;-72
2021/01/20 09:18:32;;;;;;;7.30;6.03;;;5.30;22.40;;;;;;5119360;28;20177;-73
2021/01/20 09:20:58;;;;;;;6.47;5.87;;;5.30;22.20;;;;;;5119973;28;20174;-73
2021/01/20 09:23:23;;;;;;;5.17;4.80;;;5.40;22.10;;;;;;5121183;28;20668;-74
2021/01/20 09:25:49;;;;;;;6.63;6.07;;;5.50;22.00;;;;;;5119729;28;20240;-73
2021/01/20 09:28:15;;;;;;;5.97;5.27;;;5.50;21.50;;;;;;5119283;28;20179;-72
2021/01/20 09:30:40;;;;;;;5.10;4.80;;;5.60;21.50;;;;;;5104097;28;20190;-73
2021/01/20 09:33:06;;;;;;;6.23;5.83;;;5.70;21.20;;;;;;5126083;28;20255;-71
2021/01/20 09:35:32;;;;;;;5.80;5.30;;;5.70;20.60;;;;;;5111224;28;20214;-72
2021/01/20 09:37:58;;;;;;;5.40;4.83;;;5.80;21.10;;;;;;5109723;28;20175;-73
2021/01/20 09:40:26;;;;;;;5.47;5.07;;;5.90;20.70;;;;;;5128931;28;20600;-73
2021/01/20 09:42:53;;;;;;;5.40;5.03;;;5.90;20.70;;;;;;5129657;28;20457;-74
2021/01/20 09:45:26;;;;;;;7.70;5.90;;;5.90;20.70;;;;;;5111432;28;20965;-72
2021/01/20 09:47:53;;;;;;;6.90;6.10;;;6.00;20.80;;;;;;5126885;28;20409;-75
2021/01/20 09:50:19;;;;;;;7.60;5.40;;;6.00;20.80;;;;;;5126144;28;20500;-72
2021/01/20 09:52:46;;;;;;;6.90;6.20;;;6.10;20.50;;;;;;5125381;28;20433;-73
2021/01/20 09:55:13;;;;;;;7.37;5.90;;;6.20;20.90;;;;;;5126251;28;20211;-71
2021/01/20 09:57:38;;;;;;;6.20;5.70;;;6.20;20.90;;;;;;5107484;28;20410;-72
2021/01/20 10:00:06;;;;;;;6.20;5.70;;;6.30;20.60;;;;;;5125002;28;20911;-72
2021/01/20 10:02:31;;;;;;;7.40;6.80;;;6.30;20.20;;;;;;5106006;28;20197;-73
2021/01/20 10:04:58;;;;;;;6.37;5.90;;;6.40;20.40;;;;;;5124483;28;20425;-73
2021/01/20 10:07:23;;;;;;;6.37;5.97;;;6.50;20.10;;;;;;5126944;28;20168;-74
2021/01/20 10:09:49;;;;;;;6.37;5.97;;;6.60;19.90;;;;;;5124145;28;20406;-74
2021/01/20 10:12:15;;;;;;;6.83;6.27;;;6.80;19.70;;;;;;5123011;28;20200;-73
2021/01/20 10:14:42;;;;;;;12.50;6.97;;;6.90;19.60;;;;;;5123624;28;20637;-72
2021/01/20 10:17:08;;;;;;;6.50;6.10;;;7.00;19.30;;;;;;5123073;28;20471;-74
2021/01/20 10:19:33;;;;;;;6.77;6.37;;;7.10;18.90;;;;;;5124205;28;20407;-74
2021/01/20 10:21:59;;;;;;;6.70;6.07;;;7.20;19.00;;;;;;5107158;28;20192;-73
2021/01/20 10:24:25;;;;;;;5.93;5.53;;;7.30;19.10;;;;;;5105543;28;20185;-74
2021/01/20 10:26:51;;;;;;;6.33;5.93;;;7.30;18.80;;;;;;5124163;28;20457;-73
2021/01/20 10:29:17;;;;;;;6.80;6.30;;;7.30;18.80;;;;;;5125943;28;20204;-71
2021/01/20 10:31:43;;;;;;;9.93;6.57;;;7.30;18.50;;;;;;5123131;28;20453;-73
2021/01/20 10:34:09;;;;;;;7.53;6.47;;;7.40;18.50;;;;;;5107127;28;20978;-73
2021/01/20 10:36:36;;;;;;;6.00;5.60;;;7.50;18.40;;;;;;5125621;28;20967;-72
2021/01/20 10:39:04;;;;;;;6.87;6.33;;;7.60;18.20;;;;;;5124007;28;20437;-72
2021/01/20 10:41:29;;;;;;;5.43;5.13;;;7.70;17.70;;;;;;5123130;28;20427;-73
2021/01/20 10:43:55;;;;;;;7.30;6.77;;;7.80;17.70;;;;;;5104508;28;20409;-73
2021/01/20 10:46:25;;;;;;;6.33;6.00;;;8.00;17.50;;;;;;5107248;28;20181;-74
2021/01/20 10:48:55;;;;;;;5.93;5.63;;;8.10;17.40;;;;;;5133657;28;20268;-72
2021/01/20 10:51:21;;;;;;;7.00;6.50;;;8.20;17.00;;;;;;5125542;28;20462;-72
2021/01/20 10:53:47;;;;;;;6.30;5.93;;;8.40;16.60;;;;;;5123717;28;20410;-72
2021/01/20 10:56:13;;;;;;;7.30;6.80;;;8.60;16.20;;;;;;5121903;28;20467;-74
2021/01/20 10:58:38;;;;;;;6.77;6.03;;;8.60;16.20;;;;;;5122316;28;20173;-73
2021/01/20 11:01:04;;;;;;;6.13;5.77;;;8.70;16.50;;;;;;5125021;28;20168;-73
2021/01/20 11:03:30;;;;;;;9.63;8.73;;;8.70;15.90;;;;;;5124170;28;20611;-72
2021/01/20 11:05:56;;;;;;;8.60;7.70;;;8.70;16.20;;;;;;5122829;28;20195;-71
2021/01/20 11:08:21;;;;;;;8.50;7.70;;;8.70;16.10;;;;;;5123041;28;20825;-73
2021/01/20 11:10:47;;;;;;;7.40;7.00;;;8.80;15.60;;;;;;5121839;28;20189;-73
2021/01/20 11:13:13;;;;;;;7.57;7.07;;;8.90;16.10;;;;;;5122050;28;20179;-74
2021/01/20 11:15:40;;;;;;;7.40;6.90;;;9.00;15.90;;;;;;5120967;28;20208;-74
2021/01/20 11:18:06;;;;;;;7.53;7.17;;;9.10;16.00;;;;;;5121123;28;20167;-73
2021/01/20 11:20:33;;;;;;;7.73;7.23;;;9.10;15.90;;;;;;5120831;28;20420;-73
2021/01/20 11:22:59;;;;;;;9.67;9.07;;;9.10;15.60;;;;;;5102153;28;20466;-72
2021/01/20 11:25:25;;;;;;;7.37;6.90;;;9.10;15.70;;;;;;5114581;28;20420;-71
2021/01/20 11:27:50;;;;;;;7.90;7.33;;;9.10;15.80;;;;;;5114002;28;20782;-73
2021/01/20 11:30:18;;;;;;;7.77;7.33;;;9.20;15.80;;;;;;5114542;28;20425;-71
2021/01/20 11:32:44;;;;;;;9.30;8.47;;;9.20;16.10;;;;;;5116917;28;20210;-73
2021/01/20 11:35:10;;;;;;;7.60;7.20;;;9.10;16.00;;;;;;5114269;28;20665;-72
2021/01/20 11:37:36;;;;;;;9.07;7.80;;;9.20;15.40;;;;;;5096045;28;20420;-72
2021/01/20 11:40:04;;;;;;;7.50;7.00;;;9.20;15.70;;;;;;5116314;28;20807;-73
2021/01/20 11:42:30;;;;;;;7.97;7.47;;;9.20;15.60;;;;;;5113809;28;20448;-73
2021/01/20 11:44:56;;;;;;;7.47;7.07;;;9.30;15.60;;;;;;5118950;28;20919;-71
2021/01/20 11:47:22;;;;;;;7.93;7.40;;;9.30;15.30;;;;;;5115455;28;20428;-71
2021/01/20 11:49:48;;;;;;;9.03;8.33;;;9.30;15.60;;;;;;5115163;28;20178;-71
2021/01/20 11:52:14;;;;;;;6.63;6.20;;;9.40;15.60;;;;;;5112958;28;20519;-71
2021/01/20 11:54:39;;;;;;;6.27;5.97;;;9.30;15.60;;;;;;5113237;28;20455;-71
2021/01/20 11:57:05;;;;;;;6.87;6.47;;;9.20;15.10;;;;;;5112833;28;20207;-71
2021/01/20 11:59:30;;;;;;;7.30;6.90;;;9.20;15.10;;;;;;5094796;28;20189;-71
2021/01/20 12:01:56;;;;;;;8.00;7.27;;;9.20;15.60;;;;;;5113026;28;20290;-72
2021/01/20 12:04:21;;;;;;;8.00;7.50;;;9.20;15.00;;;;;;5113077;28;20209;-72
2021/01/20 12:06:47;;;;;;;7.30;6.90;;;9.30;15.70;;;;;;5094735;28;20174;-74
2021/01/20 12:09:13;;;;;;;8.40;7.90;;;9.30;15.40;;;;;;5112768;28;20178;-72
2021/01/20 12:11:38;;;;;;;8.23;7.83;;;9.40;15.10;;;;;;5112892;28;20453;-71
2021/01/20 12:14:04;;;;;;;8.27;7.87;;;9.30;15.20;;;;;;5112817;28;20569;-71
2021/01/20 12:16:29;;;;;;;9.20;8.27;;;9.20;15.60;;;;;;5113593;28;20571;-72
2021/01/20 12:18:55;;;;;;;9.93;9.13;;;9.20;16.50;;;;;;5113017;28;20598;-72
2021/01/20 12:21:20;;;;;;;7.67;7.27;;;9.30;16.60;;;;;;5113191;28;20600;-72
2021/01/20 12:23:46;;;;;;;8.43;7.93;;;9.50;15.80;;;;;;5095361;28;20251;-72
2021/01/20 12:26:11;;;;;;;8.53;7.93;;;9.60;15.80;;;;;;5112793;28;20553;-72
2021/01/20 12:28:37;;;;;;;7.27;6.77;;;9.70;15.20;;;;;;5112305;28;20258;-72
2021/01/20 12:31:02;;;;;;;7.80;7.20;;;9.60;15.60;;;;;;5112548;28;20190;-71
2021/01/20 12:33:28;;;;;;;8.13;7.63;;;9.60;15.80;;;;;;5112304;28;20179;-72
2021/01/20 12:35:54;;;;;;;8.07;7.47;;;9.60;16.00;;;;;;5112568;28;20200;-72
2021/01/20 12:38:19;;;;;;;7.90;7.40;;;9.60;15.40;;;;;;5094902;28;20183;-72
2021/01/20 12:40:45;;;;;;;8.63;8.13;;;9.70;15.40;;;;;;5113494;28;20524;-73
2021/01/20 12:43:10;;;;;;;8.10;7.50;;;9.70;15.70;;;;;;5123304;28;20203;-72
2021/01/20 12:45:38;;;;;;;8.37;7.90;;;9.70;15.60;;;;;;5095947;28;20173;-72
2021/01/20 12:48:05;;;;;;;7.37;6.90;;;9.70;15.60;;;;;;5113332;28;20194;-72
2021/01/20 12:50:31;;;;;;;7.23;6.93;;;9.70;16.20;;;;;;5101059;28;20927;-72
2021/01/20 12:52:57;;;;;;;8.70;8.10;;;9.60;15.70;;;;;;5127981;28;20463;-72
2021/01/20 12:55:24;;;;;;;7.47;7.17;;;9.70;15.80;;;;;;5137576;28;20235;-72
2021/01/20 12:57:50;;;;;;;7.87;7.47;;;9.70;15.80;;;;;;5115037;28;20194;-73
2021/01/20 13:00:16;;;;;;;7.40;7.00;;;9.80;15.70;;;;;;5122797;28;20460;-72
2021/01/20 13:02:41;;;;;;;6.73;6.43;;;9.80;15.60;;;;;;5117653;28;20438;-73